sensor_id;sensor_type;location;lat;lon;timestamp;temperature;humidity
43414;DHT22;29013;49.676;8.606;2023-07-02T00:00:28;19.1;95.8
43414;DHT22;29013;49.676;8.606;2023-07-02T00:06:13;19.0;96.2
43414;DHT22;29013;49.676;8.606;2023-07-02T00:11:37;19.1;95.8
43414;DHT22;29013;49.676;8.606;2023-07-02T00:17:27;19.0;96.1
43414;DHT22;29013;49.676;8.606;2023-07-02T00:22:50;19.0;95.7
43414;DHT22;29013;49.676;8.606;2023-07-02T00:28:15;18.8;95.7
43414;DHT22;29013;49.676;8.606;2023-07-02T00:33:37;18.6;95.8
43414;DHT22;29013;49.676;8.606;2023-07-02T00:39:04;18.4;95.9
43414;DHT22;29013;49.676;8.606;2023-07-02T00:44:27;18.5;95.8
43414;DHT22;29013;49.676;8.606;2023-07-02T00:49:54;18.5;95.6
43414;DHT22;29013;49.676;8.606;2023-07-02T00:55:19;18.6;95.4
43414;DHT22;29013;49.676;8.606;2023-07-02T01:00:43;18.6;95.4
43414;DHT22;29013;49.676;8.606;2023-07-02T01:06:05;18.6;95.3
43414;DHT22;29013;49.676;8.606;2023-07-02T01:11:27;18.6;95.0
43414;DHT22;29013;49.676;8.606;2023-07-02T01:16:50;18.6;94.9
43414;DHT22;29013;49.676;8.606;2023-07-02T01:22:13;18.5;94.8
43414;DHT22;29013;49.676;8.606;2023-07-02T01:27:36;18.5;94.7
43414;DHT22;29013;49.676;8.606;2023-07-02T01:32:59;18.5;94.6
43414;DHT22;29013;49.676;8.606;2023-07-02T01:38:18;18.4;94.6
43414;DHT22;29013;49.676;8.606;2023-07-02T01:43:44;18.3;94.6
43414;DHT22;29013;49.676;8.606;2023-07-02T01:49:08;18.3;94.8
43414;DHT22;29013;49.676;8.606;2023-07-02T01:54:32;18.3;95.1
43414;DHT22;29013;49.676;8.606;2023-07-02T01:59:53;18.2;95.1
43414;DHT22;29013;49.676;8.606;2023-07-02T02:05:32;18.2;95.3
43414;DHT22;29013;49.676;8.606;2023-07-02T02:10:54;18.4;94.8
43414;DHT22;29013;49.676;8.606;2023-07-02T02:16:19;18.3;94.9
43414;DHT22;29013;49.676;8.606;2023-07-02T02:21:43;18.3;94.5
43414;DHT22;29013;49.676;8.606;2023-07-02T02:27:08;18.3;93.8
43414;DHT22;29013;49.676;8.606;2023-07-02T02:32:33;18.2;93.6
43414;DHT22;29013;49.676;8.606;2023-07-02T02:38:01;18.2;93.8
43414;DHT22;29013;49.676;8.606;2023-07-02T02:43:20;18.2;94.1
43414;DHT22;29013;49.676;8.606;2023-07-02T02:49:03;18.1;94.6
43414;DHT22;29013;49.676;8.606;2023-07-02T02:54:29;18.2;94.1
43414;DHT22;29013;49.676;8.606;2023-07-02T02:59:46;18.1;93.6
43414;DHT22;29013;49.676;8.606;2023-07-02T03:05:11;18.0;93.2
43414;DHT22;29013;49.676;8.606;2023-07-02T03:10:36;17.9;92.7
43414;DHT22;29013;49.676;8.606;2023-07-02T03:16:00;17.6;92.8
43414;DHT22;29013;49.676;8.606;2023-07-02T03:21:21;17.5;93.2
43414;DHT22;29013;49.676;8.606;2023-07-02T03:26:46;17.3;93.6
43414;DHT22;29013;49.676;8.606;2023-07-02T03:32:10;17.4;93.9
43414;DHT22;29013;49.676;8.606;2023-07-02T03:37:34;17.4;94.1
43414;DHT22;29013;49.676;8.606;2023-07-02T03:42:56;17.5;94.2
43414;DHT22;29013;49.676;8.606;2023-07-02T03:48:21;17.5;94.2
43414;DHT22;29013;49.676;8.606;2023-07-02T03:53:46;17.6;94.2
43414;DHT22;29013;49.676;8.606;2023-07-02T03:59:12;17.6;94.1
43414;DHT22;29013;49.676;8.606;2023-07-02T04:04:32;17.6;94.1
43414;DHT22;29013;49.676;8.606;2023-07-02T04:09:50;17.6;93.9
43414;DHT22;29013;49.676;8.606;2023-07-02T04:15:12;17.6;94.1
43414;DHT22;29013;49.676;8.606;2023-07-02T04:20:32;17.6;94.1
43414;DHT22;29013;49.676;8.606;2023-07-02T04:25:54;17.6;94.1
43414;DHT22;29013;49.676;8.606;2023-07-02T04:31:20;17.6;93.9
43414;DHT22;29013;49.676;8.606;2023-07-02T04:36:44;17.6;93.7
43414;DHT22;29013;49.676;8.606;2023-07-02T04:42:09;17.7;93.6
43414;DHT22;29013;49.676;8.606;2023-07-02T04:47:34;17.8;93.5
43414;DHT22;29013;49.676;8.606;2023-07-02T04:52:59;17.9;93.4
43414;DHT22;29013;49.676;8.606;2023-07-02T04:58:23;18.1;93.5
43414;DHT22;29013;49.676;8.606;2023-07-02T05:03:46;18.2;93.2
43414;DHT22;29013;49.676;8.606;2023-07-02T05:09:08;18.4;93.4
43414;DHT22;29013;49.676;8.606;2023-07-02T05:14:28;18.5;93.1
43414;DHT22;29013;49.676;8.606;2023-07-02T05:19:48;18.6;93.0
43414;DHT22;29013;49.676;8.606;2023-07-02T05:25:10;18.8;93.1
43414;DHT22;29013;49.676;8.606;2023-07-02T05:30:35;18.9;93.1
43414;DHT22;29013;49.676;8.606;2023-07-02T05:35:54;18.9;93.3
43414;DHT22;29013;49.676;8.606;2023-07-02T05:41:22;19.1;93.4
43414;DHT22;29013;49.676;8.606;2023-07-02T05:46:46;19.2;92.7
43414;DHT22;29013;49.676;8.606;2023-07-02T05:52:08;19.3;91.9
43414;DHT22;29013;49.676;8.606;2023-07-02T05:57:30;19.3;92.0
43414;DHT22;29013;49.676;8.606;2023-07-02T06:02:54;19.4;91.7
43414;DHT22;29013;49.676;8.606;2023-07-02T06:08:13;19.4;91.7
43414;DHT22;29013;49.676;8.606;2023-07-02T06:13:38;19.5;91.6
43414;DHT22;29013;49.676;8.606;2023-07-02T06:19:00;19.5;91.3
43414;DHT22;29013;49.676;8.606;2023-07-02T06:24:25;19.6;91.2
43414;DHT22;29013;49.676;8.606;2023-07-02T06:29:43;19.8;90.6
43414;DHT22;29013;49.676;8.606;2023-07-02T06:35:02;20.0;90.5
43414;DHT22;29013;49.676;8.606;2023-07-02T06:40:26;20.1;90.0
43414;DHT22;29013;49.676;8.606;2023-07-02T06:45:53;20.2;89.2
43414;DHT22;29013;49.676;8.606;2023-07-02T06:51:17;20.4;88.1
43414;DHT22;29013;49.676;8.606;2023-07-02T06:56:41;20.4;87.5
43414;DHT22;29013;49.676;8.606;2023-07-02T07:02:03;20.4;87.4
43414;DHT22;29013;49.676;8.606;2023-07-02T07:07:23;20.4;85.5
43414;DHT22;29013;49.676;8.606;2023-07-02T07:13:02;20.3;85.9
43414;DHT22;29013;49.676;8.606;2023-07-02T07:18:22;20.3;85.8
43414;DHT22;29013;49.676;8.606;2023-07-02T07:23:46;20.3;85.6
43414;DHT22;29013;49.676;8.606;2023-07-02T07:29:10;20.4;84.5
43414;DHT22;29013;49.676;8.606;2023-07-02T07:34:36;20.4;84.5
43414;DHT22;29013;49.676;8.606;2023-07-02T07:39:58;20.4;83.9
43414;DHT22;29013;49.676;8.606;2023-07-02T07:45:20;20.4;83.0
43414;DHT22;29013;49.676;8.606;2023-07-02T07:50:43;20.5;83.0
43414;DHT22;29013;49.676;8.606;2023-07-02T07:56:08;20.7;79.2
43414;DHT22;29013;49.676;8.606;2023-07-02T08:01:33;20.9;80.1
43414;DHT22;29013;49.676;8.606;2023-07-02T08:06:59;21.2;78.7
43414;DHT22;29013;49.676;8.606;2023-07-02T08:12:23;21.3;76.6
43414;DHT22;29013;49.676;8.606;2023-07-02T08:17:48;21.4;76.2
43414;DHT22;29013;49.676;8.606;2023-07-02T08:23:16;21.4;75.0
43414;DHT22;29013;49.676;8.606;2023-07-02T08:28:41;21.5;74.7
43414;DHT22;29013;49.676;8.606;2023-07-02T08:34:21;21.5;75.4
43414;DHT22;29013;49.676;8.606;2023-07-02T08:39:45;21.6;74.7
43414;DHT22;29013;49.676;8.606;2023-07-02T08:45:11;21.8;76.4
43414;DHT22;29013;49.676;8.606;2023-07-02T08:50:36;22.0;74.4
43414;DHT22;29013;49.676;8.606;2023-07-02T08:55:59;22.0;74.8
43414;DHT22;29013;49.676;8.606;2023-07-02T09:01:22;22.1;72.3
43414;DHT22;29013;49.676;8.606;2023-07-02T09:07:11;22.1;73.4
43414;DHT22;29013;49.676;8.606;2023-07-02T09:12:32;22.2;72.6
43414;DHT22;29013;49.676;8.606;2023-07-02T09:17:56;22.4;72.5
43414;DHT22;29013;49.676;8.606;2023-07-02T09:23:20;22.6;71.3
43414;DHT22;29013;49.676;8.606;2023-07-02T09:28:43;22.6;70.7
43414;DHT22;29013;49.676;8.606;2023-07-02T09:34:09;22.9;69.7
43414;DHT22;29013;49.676;8.606;2023-07-02T09:39:33;23.1;69.7
43414;DHT22;29013;49.676;8.606;2023-07-02T09:44:58;23.2;68.4
43414;DHT22;29013;49.676;8.606;2023-07-02T09:50:24;23.3;66.7
43414;DHT22;29013;49.676;8.606;2023-07-02T09:55:43;23.5;67.1
43414;DHT22;29013;49.676;8.606;2023-07-02T10:01:06;23.7;65.8
43414;DHT22;29013;49.676;8.606;2023-07-02T10:06:24;23.7;65.3
43414;DHT22;29013;49.676;8.606;2023-07-02T10:11:42;23.7;65.4
43414;DHT22;29013;49.676;8.606;2023-07-02T10:17:04;23.8;64.6
43414;DHT22;29013;49.676;8.606;2023-07-02T10:22:28;23.8;63.5
43414;DHT22;29013;49.676;8.606;2023-07-02T10:28:21;23.9;63.0
43414;DHT22;29013;49.676;8.606;2023-07-02T10:33:47;24.4;62.4
43414;DHT22;29013;49.676;8.606;2023-07-02T10:39:10;24.2;61.8
43414;DHT22;29013;49.676;8.606;2023-07-02T10:44:46;24.1;62.1
43414;DHT22;29013;49.676;8.606;2023-07-02T10:49:57;24.2;62.2
43414;DHT22;29013;49.676;8.606;2023-07-02T10:55:54;24.1;61.4
43414;DHT22;29013;49.676;8.606;2023-07-02T11:01:23;24.3;60.7
43414;DHT22;29013;49.676;8.606;2023-07-02T11:06:46;24.2;59.9
43414;DHT22;29013;49.676;8.606;2023-07-02T11:12:10;24.4;60.2
43414;DHT22;29013;49.676;8.606;2023-07-02T11:17:32;24.8;59.4
43414;DHT22;29013;49.676;8.606;2023-07-02T11:22:54;24.8;58.7
43414;DHT22;29013;49.676;8.606;2023-07-02T11:28:16;24.5;58.9
43414;DHT22;29013;49.676;8.606;2023-07-02T11:33:39;24.4;59.9
43414;DHT22;29013;49.676;8.606;2023-07-02T11:39:02;24.2;59.9
43414;DHT22;29013;49.676;8.606;2023-07-02T11:44:26;24.0;60.3
43414;DHT22;29013;49.676;8.606;2023-07-02T11:49:45;24.0;60.6
43414;DHT22;29013;49.676;8.606;2023-07-02T11:55:10;24.5;60.6
43414;DHT22;29013;49.676;8.606;2023-07-02T12:00:52;24.9;59.7
43414;DHT22;29013;49.676;8.606;2023-07-02T12:06:16;25.3;58.6
43414;DHT22;29013;49.676;8.606;2023-07-02T12:11:41;25.3;57.3
43414;DHT22;29013;49.676;8.606;2023-07-02T12:17:05;25.5;57.2
43414;DHT22;29013;49.676;8.606;2023-07-02T12:22:29;25.8;56.6
43414;DHT22;29013;49.676;8.606;2023-07-02T12:27:54;25.7;56.1
43414;DHT22;29013;49.676;8.606;2023-07-02T12:33:19;25.7;55.4
43414;DHT22;29013;49.676;8.606;2023-07-02T12:38:44;25.8;54.9
43414;DHT22;29013;49.676;8.606;2023-07-02T12:44:07;25.9;55.0
43414;DHT22;29013;49.676;8.606;2023-07-02T12:49:28;25.8;55.2
43414;DHT22;29013;49.676;8.606;2023-07-02T12:54:47;25.7;54.8
43414;DHT22;29013;49.676;8.606;2023-07-02T13:00:26;25.7;56.0
43414;DHT22;29013;49.676;8.606;2023-07-02T13:05:50;26.3;54.6
43414;DHT22;29013;49.676;8.606;2023-07-02T13:11:08;26.7;53.7
43414;DHT22;29013;49.676;8.606;2023-07-02T13:16:30;26.7;52.5
43414;DHT22;29013;49.676;8.606;2023-07-02T13:21:54;26.7;53.2
43414;DHT22;29013;49.676;8.606;2023-07-02T13:27:19;27.0;53.6
43414;DHT22;29013;49.676;8.606;2023-07-02T13:32:43;27.2;53.1
43414;DHT22;29013;49.676;8.606;2023-07-02T13:38:01;27.2;53.3
43414;DHT22;29013;49.676;8.606;2023-07-02T13:43:26;27.1;52.5
43414;DHT22;29013;49.676;8.606;2023-07-02T13:48:54;27.3;53.2
43414;DHT22;29013;49.676;8.606;2023-07-02T13:54:20;27.6;51.9
43414;DHT22;29013;49.676;8.606;2023-07-02T13:59:43;27.5;52.0
43414;DHT22;29013;49.676;8.606;2023-07-02T14:05:09;27.1;52.8
43414;DHT22;29013;49.676;8.606;2023-07-02T14:10:57;26.9;53.0
43414;DHT22;29013;49.676;8.606;2023-07-02T14:16:19;27.3;52.6
43414;DHT22;29013;49.676;8.606;2023-07-02T14:21:40;27.3;51.9
43414;DHT22;29013;49.676;8.606;2023-07-02T14:27:04;27.2;52.0
43414;DHT22;29013;49.676;8.606;2023-07-02T14:32:29;27.8;51.5
43414;DHT22;29013;49.676;8.606;2023-07-02T14:38:19;28.1;51.5
43414;DHT22;29013;49.676;8.606;2023-07-02T14:43:42;28.0;50.0
43414;DHT22;29013;49.676;8.606;2023-07-02T14:49:06;27.9;50.6
43414;DHT22;29013;49.676;8.606;2023-07-02T14:54:30;27.9;50.9
43414;DHT22;29013;49.676;8.606;2023-07-02T14:59:55;28.5;50.0
43414;DHT22;29013;49.676;8.606;2023-07-02T15:05:18;28.5;50.0
43414;DHT22;29013;49.676;8.606;2023-07-02T15:10:45;28.5;49.3
43414;DHT22;29013;49.676;8.606;2023-07-02T15:16:10;27.9;49.8
43414;DHT22;29013;49.676;8.606;2023-07-02T15:21:33;27.9;50.8
43414;DHT22;29013;49.676;8.606;2023-07-02T15:26:58;28.0;50.6
43414;DHT22;29013;49.676;8.606;2023-07-02T15:32:21;28.1;49.8
43414;DHT22;29013;49.676;8.606;2023-07-02T15:37:47;27.7;50.1
43414;DHT22;29013;49.676;8.606;2023-07-02T15:43:13;27.5;50.2
43414;DHT22;29013;49.676;8.606;2023-07-02T15:48:38;27.7;51.0
43414;DHT22;29013;49.676;8.606;2023-07-02T15:54:03;27.1;50.9
43414;DHT22;29013;49.676;8.606;2023-07-02T15:59:28;27.0;51.2
43414;DHT22;29013;49.676;8.606;2023-07-02T16:04:51;27.6;51.3
43414;DHT22;29013;49.676;8.606;2023-07-02T16:10:12;28.0;50.3
43414;DHT22;29013;49.676;8.606;2023-07-02T16:15:35;28.1;49.6
43414;DHT22;29013;49.676;8.606;2023-07-02T16:21:00;27.5;50.2
43414;DHT22;29013;49.676;8.606;2023-07-02T16:26:23;27.0;51.2
43414;DHT22;29013;49.676;8.606;2023-07-02T16:31:49;27.6;51.1
43414;DHT22;29013;49.676;8.606;2023-07-02T16:37:12;27.9;50.5
43414;DHT22;29013;49.676;8.606;2023-07-02T16:43:01;28.7;49.5
43414;DHT22;29013;49.676;8.606;2023-07-02T16:48:19;28.7;48.5
43414;DHT22;29013;49.676;8.606;2023-07-02T16:53:41;27.7;49.5
43414;DHT22;29013;49.676;8.606;2023-07-02T16:59:06;27.2;50.4
43414;DHT22;29013;49.676;8.606;2023-07-02T17:04:30;26.7;51.0
43414;DHT22;29013;49.676;8.606;2023-07-02T17:09:48;26.6;51.4
43414;DHT22;29013;49.676;8.606;2023-07-02T17:15:12;26.5;52.1
43414;DHT22;29013;49.676;8.606;2023-07-02T17:20:36;26.5;51.6
43414;DHT22;29013;49.676;8.606;2023-07-02T17:26:22;26.2;52.4
43414;DHT22;29013;49.676;8.606;2023-07-02T17:31:48;26.2;51.9
43414;DHT22;29013;49.676;8.606;2023-07-02T17:37:34;26.1;52.6
43414;DHT22;29013;49.676;8.606;2023-07-02T17:42:58;26.2;52.7
43414;DHT22;29013;49.676;8.606;2023-07-02T17:48:25;26.1;52.7
43414;DHT22;29013;49.676;8.606;2023-07-02T17:53:49;26.0;52.7
43414;DHT22;29013;49.676;8.606;2023-07-02T17:59:38;26.1;53.2
43414;DHT22;29013;49.676;8.606;2023-07-02T18:05:01;26.3;52.2
43414;DHT22;29013;49.676;8.606;2023-07-02T18:10:27;26.3;52.3
43414;DHT22;29013;49.676;8.606;2023-07-02T18:15:50;26.2;53.0
43414;DHT22;29013;49.676;8.606;2023-07-02T18:21:16;26.0;53.0
43414;DHT22;29013;49.676;8.606;2023-07-02T18:26:39;25.8;53.1
43414;DHT22;29013;49.676;8.606;2023-07-02T18:31:58;25.6;53.3
43414;DHT22;29013;49.676;8.606;2023-07-02T18:37:17;25.5;53.8
43414;DHT22;29013;49.676;8.606;2023-07-02T18:42:37;25.4;53.6
43414;DHT22;29013;49.676;8.606;2023-07-02T18:47:57;25.2;53.7
43414;DHT22;29013;49.676;8.606;2023-07-02T18:53:20;25.0;54.1
43414;DHT22;29013;49.676;8.606;2023-07-02T18:58:43;24.8;54.4
43414;DHT22;29013;49.676;8.606;2023-07-02T19:17:38;26.7;50.8
43414;DHT22;29013;49.676;8.606;2023-07-02T19:22:54;25.3;52.9
43414;DHT22;29013;49.676;8.606;2023-07-02T19:28:14;24.3;54.5
43414;DHT22;29013;49.676;8.606;2023-07-02T19:33:34;23.6;55.5
43414;DHT22;29013;49.676;8.606;2023-07-02T19:38:57;23.2;56.3
43414;DHT22;29013;49.676;8.606;2023-07-02T19:44:19;22.9;56.9
43414;DHT22;29013;49.676;8.606;2023-07-02T19:49:37;22.7;57.6
43414;DHT22;29013;49.676;8.606;2023-07-02T19:55:02;22.5;58.0
43414;DHT22;29013;49.676;8.606;2023-07-02T20:00:24;22.3;58.6
43414;DHT22;29013;49.676;8.606;2023-07-02T20:05:47;22.3;59.0
43414;DHT22;29013;49.676;8.606;2023-07-02T20:11:13;22.1;59.2
43414;DHT22;29013;49.676;8.606;2023-07-02T20:16:35;22.1;59.4
43414;DHT22;29013;49.676;8.606;2023-07-02T20:21:58;22.0;59.6
43414;DHT22;29013;49.676;8.606;2023-07-02T20:27:20;22.0;59.8
43414;DHT22;29013;49.676;8.606;2023-07-02T20:32:43;21.9;60.2
43414;DHT22;29013;49.676;8.606;2023-07-02T20:38:06;21.8;60.4
43414;DHT22;29013;49.676;8.606;2023-07-02T20:43:28;21.8;60.5
43414;DHT22;29013;49.676;8.606;2023-07-02T20:48:54;21.7;60.9
43414;DHT22;29013;49.676;8.606;2023-07-02T20:54:16;21.6;61.2
43414;DHT22;29013;49.676;8.606;2023-07-02T20:59:34;21.5;61.5
43414;DHT22;29013;49.676;8.606;2023-07-02T21:04:56;21.4;61.7
43414;DHT22;29013;49.676;8.606;2023-07-02T21:10:20;21.2;61.7
43414;DHT22;29013;49.676;8.606;2023-07-02T21:15:44;21.1;62.2
43414;DHT22;29013;49.676;8.606;2023-07-02T21:21:24;20.9;63.2
43414;DHT22;29013;49.676;8.606;2023-07-02T21:26:47;21.0;63.0
43414;DHT22;29013;49.676;8.606;2023-07-02T21:32:08;21.0;63.1
43414;DHT22;29013;49.676;8.606;2023-07-02T21:37:33;21.0;63.2
43414;DHT22;29013;49.676;8.606;2023-07-02T21:42:57;20.9;63.1
43414;DHT22;29013;49.676;8.606;2023-07-02T21:48:20;20.8;63.3
43414;DHT22;29013;49.676;8.606;2023-07-02T21:54:11;20.7;64.5
43414;DHT22;29013;49.676;8.606;2023-07-02T21:59:33;20.7;63.9
43414;DHT22;29013;49.676;8.606;2023-07-02T22:04:57;20.7;64.2
43414;DHT22;29013;49.676;8.606;2023-07-02T22:10:22;20.7;64.3
43414;DHT22;29013;49.676;8.606;2023-07-02T22:15:42;20.7;64.4
43414;DHT22;29013;49.676;8.606;2023-07-02T22:21:01;20.7;64.5
43414;DHT22;29013;49.676;8.606;2023-07-02T22:26:22;20.7;64.7
43414;DHT22;29013;49.676;8.606;2023-07-02T22:31:47;20.6;64.9
43414;DHT22;29013;49.676;8.606;2023-07-02T22:37:12;20.6;65.3
43414;DHT22;29013;49.676;8.606;2023-07-02T22:42:37;20.6;65.6
43414;DHT22;29013;49.676;8.606;2023-07-02T22:47:59;20.6;65.8
43414;DHT22;29013;49.676;8.606;2023-07-02T22:53:23;20.5;65.8
43414;DHT22;29013;49.676;8.606;2023-07-02T22:58:46;20.5;66.1
43414;DHT22;29013;49.676;8.606;2023-07-02T23:04:10;20.5;66.4
43414;DHT22;29013;49.676;8.606;2023-07-02T23:09:30;20.5;66.9
43414;DHT22;29013;49.676;8.606;2023-07-02T23:14:50;20.4;66.9
43414;DHT22;29013;49.676;8.606;2023-07-02T23:20:14;20.4;67.1
43414;DHT22;29013;49.676;8.606;2023-07-02T23:25:36;20.3;67.5
43414;DHT22;29013;49.676;8.606;2023-07-02T23:31:01;20.2;68.1
43414;DHT22;29013;49.676;8.606;2023-07-02T23:36:25;19.9;69.0
43414;DHT22;29013;49.676;8.606;2023-07-02T23:41:50;19.7;69.6
43414;DHT22;29013;49.676;8.606;2023-07-02T23:47:14;19.5;70.0
43414;DHT22;29013;49.676;8.606;2023-07-02T23:52:39;19.3;70.6
43414;DHT22;29013;49.676;8.606;2023-07-02T23:58:02;19.1;70.9
